Impacts METAR Board
IDs:

KSAN - San Diego Intl Arpt, CA, US

Updated at: 2200 UTC 01 Feb 2023
Potential Impact None Slight Moderate High
Time 01/10Z 01/11Z 01/12Z 01/13Z 01/14Z 01/15Z 01/16Z 01/17Z 01/18Z 01/19Z 01/20Z 01/21Z 01/22Z
Temp46 44 45 43 43 42 48 55 58 62 63 64 65
Dewpt36 35 34 33 32 33 34 31 32 31 32 34 39
Altim30.11 30.11 30.10 30.11 30.12 30.14 30.16 30.18 30.19 30.18 30.16 30.14 30.13
VIS10 10 10 10 10 10 10 10 10 10 10 10 10
CIG-- -- -- -- -- -- -- -- -- -- -- -- --
CoverCLRCLRCLRCLRCLRFEWFEWFEWCLRCLRCLRCLRCLR
FltCatVFRVFRVFRVFRVFRVFRVFRVFRVFRVFRVFRVFRVFR
WX--------------------------
WDir3000000001700200260320
WSpd3 0 0 0 0 0 0 0 4 0 4 4 4
WGst-- -- -- -- -- -- -- -- -- -- -- -- --
Raw hourly METARs
KSAN 010951Z 03003KT 10SM CLR 08/02 A3011 RMK AO2 SLP195 T00780022 $
KSAN 011051Z 00000KT 10SM CLR 07/02 A3011 RMK AO2 SLP195 T00670017 $
KSAN 011151Z 00000KT 10SM CLR 07/01 A3010 RMK AO2 SLP194 T00720011 10100 20067 58002 $
KSAN 011251Z 00000KT 10SM CLR 06/01 A3011 RMK AO2 SLP196 T00610006 $
KSAN 011351Z 00000KT 10SM CLR 06/00 A3012 RMK AO2 SLP199 T00610000 $
KSAN 011451Z 00000KT 10SM FEW250 06/01 A3014 RMK AO2 SLP204 T00560006 53011 $
KSAN 011551Z 00000KT 10SM FEW250 09/01 A3016 RMK AO2 SLP212 T00890011 $
KSAN 011651Z 00000KT 10SM FEW250 13/M01 A3018 RMK AO2 SLP218 T01281006 $
KSAN 011751Z 17004KT 10SM CLR 14/00 A3019 RMK AO2 SLP222 T01440000 10144 20056 51018 $
KSAN 011851Z 00000KT 10SM CLR 17/M01 A3018 RMK AO2 SLP219 T01671006 $
KSAN 011951Z 20004KT 10SM CLR 17/00 A3016 RMK AO2 SLP212 T01720000 $
KSAN 012051Z 26004KT 10SM CLR 18/01 A3014 RMK AO2 SLP206 T01780011 58016 $
KSAN 012151Z 32004KT 10SM CLR 18/04 A3013 RMK AO2 SLP203 T01830039



Page loaded:  22:14 UTC  |   02:14 PM Pacific  |   03:14 PM Mountain  |   04:14 PM Central  |   05:14 PM Eastern

 

ADVISORIES

FORECASTS

FORECASTS

OBSERVATIONS

USER TOOLS

ABOUT US